Baquedano, Chile
Current Conditions -  °F | °C
As of 8:00 PM on Sunday 25 Jan 2015 (Local Time) from SCFA Reporting Station
Few Clouds Few Clouds  
Wind Chill: 68°   Ceiling: Unl
Heat Index: 68°   Visibility: 6mi
Dew Point: 59°   Wind: 9mph
Humidity: 73%   Direction: 180°S
Pressure: 29.83"   Gusts: NA
Location:  23.33°S, 69.85°W
Report Text: SCFA 260000Z 18008KT 9999 FEW025 20/15 Q1010 NOSIG
Loading
Personal Weather Stations






























Interactive Weather Map New forecast layout! Learn more

10-Day Weather Forecast

Advertisements
Track Severe Weather on mobile